sensor_id;sensor_type;location;lat;lon;timestamp;pressure;altitude;pressure_sealevel;temperature;humidity
19890;BME280;10107;51.198;6.824;2022-09-09T00:01:46;-21743.47;;;16.29;95.89
19890;BME280;10107;51.198;6.824;2022-09-09T00:05:57;-21742.41;;;16.25;96.37
19890;BME280;10107;51.198;6.824;2022-09-09T00:10:13;-21741.63;;;16.22;96.61
19890;BME280;10107;51.198;6.824;2022-09-09T00:14:23;-21741.22;;;16.20;97.38
19890;BME280;10107;51.198;6.824;2022-09-09T00:18:35;-21740.19;;;16.16;97.74
19890;BME280;10107;51.198;6.824;2022-09-09T00:22:42;-21737.81;;;16.07;97.43
19890;BME280;10107;51.198;6.824;2022-09-09T00:26:51;-21736.38;;;16.01;98.08
19890;BME280;10107;51.198;6.824;2022-09-09T00:30:56;-21735.31;;;15.97;99.58
19890;BME280;10107;51.198;6.824;2022-09-09T00:35:04;-21736.91;;;16.03;99.80
19890;BME280;10107;51.198;6.824;2022-09-09T00:39:24;-21737.94;;;16.08;99.17
19890;BME280;10107;51.198;6.824;2022-09-09T00:43:28;-21738.59;;;16.10;98.69
19890;BME280;10107;51.198;6.824;2022-09-09T00:47:50;-21740.03;;;16.16;98.65
19890;BME280;10107;51.198;6.824;2022-09-09T00:52:00;-21741.63;;;16.22;97.99
19890;BME280;10107;51.198;6.824;2022-09-09T00:56:13;-21743.31;;;16.29;98.04
19890;BME280;10107;51.198;6.824;2022-09-09T01:00:25;-21743.97;;;16.31;98.25
19890;BME280;10107;51.198;6.824;2022-09-09T01:04:32;-21742.53;;;16.26;97.59
19890;BME280;10107;51.198;6.824;2022-09-09T01:08:46;-21740.19;;;16.16;97.90
19890;BME280;10107;51.198;6.824;2022-09-09T01:12:53;-21739.38;;;16.13;98.01
19890;BME280;10107;51.198;6.824;2022-09-09T01:17:01;-21740.31;;;16.17;97.03
19890;BME280;10107;51.198;6.824;2022-09-09T01:21:19;-21740.56;;;16.18;96.59
19890;BME280;10107;51.198;6.824;2022-09-09T01:29:57;-21736.63;;;16.02;95.61
19890;BME280;10107;51.198;6.824;2022-09-09T01:34:04;-21735.06;;;15.96;96.59
19890;BME280;10107;51.198;6.824;2022-09-09T01:38:11;-21736.09;;;16.00;97.49
19890;BME280;10107;51.198;6.824;2022-09-09T01:42:15;-21737.41;;;16.06;97.32
19890;BME280;10107;51.198;6.824;2022-09-09T01:46:21;-21737.94;;;16.08;96.83
19890;BME280;10107;51.198;6.824;2022-09-09T01:50:23;-21737.94;;;16.08;96.79
19890;BME280;10107;51.198;6.824;2022-09-09T01:54:28;-21738.88;;;16.11;97.04
19890;BME280;10107;51.198;6.824;2022-09-09T01:58:44;-21740.84;;;16.19;95.75
19890;BME280;10107;51.198;6.824;2022-09-09T02:02:58;-21742.41;;;16.25;95.69
19890;BME280;10107;51.198;6.824;2022-09-09T02:07:22;-21743.97;;;16.31;94.60
19890;BME280;10107;51.198;6.824;2022-09-09T02:11:32;-21745.16;;;16.36;94.40
19890;BME280;10107;51.198;6.824;2022-09-09T02:15:47;-21746.59;;;16.41;93.93
19890;BME280;10107;51.198;6.824;2022-09-09T02:19:56;-21746.75;;;16.42;93.75
19890;BME280;10107;51.198;6.824;2022-09-09T02:24:15;-21748.56;;;16.49;93.77
19890;BME280;10107;51.198;6.824;2022-09-09T02:28:25;-21749.50;;;16.53;93.38
19890;BME280;10107;51.198;6.824;2022-09-09T02:32:28;-21750.03;;;16.55;92.73
19890;BME280;10107;51.198;6.824;2022-09-09T02:36:35;-21749.09;;;16.51;92.07
19890;BME280;10107;51.198;6.824;2022-09-09T02:40:38;-21748.19;;;16.48;91.64
19890;BME280;10107;51.198;6.824;2022-09-09T02:44:41;-21748.06;;;16.47;91.83
19890;BME280;10107;51.198;6.824;2022-09-09T02:48:47;-21748.69;;;16.50;91.59
19890;BME280;10107;51.198;6.824;2022-09-09T02:53:01;-21747.38;;;16.44;90.70
19890;BME280;10107;51.198;6.824;2022-09-09T02:57:11;-21746.09;;;16.39;89.83
19890;BME280;10107;51.198;6.824;2022-09-09T03:01:15;-21745.03;;;16.35;90.48
19890;BME280;10107;51.198;6.824;2022-09-09T03:05:17;-21745.03;;;16.35;89.82
19890;BME280;10107;51.198;6.824;2022-09-09T03:09:21;-21744.63;;;16.34;89.08
19890;BME280;10107;51.198;6.824;2022-09-09T03:13:24;-21744.63;;;16.34;89.56
19890;BME280;10107;51.198;6.824;2022-09-09T03:17:26;-21744.25;;;16.32;89.38
19890;BME280;10107;51.198;6.824;2022-09-09T03:21:29;-21745.16;;;16.36;89.28
19890;BME280;10107;51.198;6.824;2022-09-09T03:25:34;-21746.47;;;16.41;88.97
19890;BME280;10107;51.198;6.824;2022-09-09T03:29:36;-21747.38;;;16.44;88.90
19890;BME280;10107;51.198;6.824;2022-09-09T03:33:42;-21746.59;;;16.41;88.68
19890;BME280;10107;51.198;6.824;2022-09-09T03:37:47;-21747.25;;;16.44;88.82
19890;BME280;10107;51.198;6.824;2022-09-09T03:41:52;-21747.53;;;16.45;88.39
19890;BME280;10107;51.198;6.824;2022-09-09T03:45:55;-21748.19;;;16.48;88.90
19890;BME280;10107;51.198;6.824;2022-09-09T03:49:58;-21748.69;;;16.50;88.19
19890;BME280;10107;51.198;6.824;2022-09-09T03:54:00;-21748.56;;;16.49;87.77
19890;BME280;10107;51.198;6.824;2022-09-09T03:58:04;-21748.44;;;16.49;88.15
19890;BME280;10107;51.198;6.824;2022-09-09T04:02:05;-21747.91;;;16.47;88.37
19890;BME280;10107;51.198;6.824;2022-09-09T04:06:08;-21748.31;;;16.48;88.71
19890;BME280;10107;51.198;6.824;2022-09-09T04:10:12;-21749.63;;;16.53;88.77
19890;BME280;10107;51.198;6.824;2022-09-09T04:14:19;-21750.41;;;16.56;88.55
19890;BME280;10107;51.198;6.824;2022-09-09T04:18:21;-21751.31;;;16.60;88.30
19890;BME280;10107;51.198;6.824;2022-09-09T04:22:30;-21751.06;;;16.59;88.36
19890;BME280;10107;51.198;6.824;2022-09-09T04:26:33;-21750.94;;;16.58;88.55
19890;BME280;10107;51.198;6.824;2022-09-09T04:30:36;-21750.66;;;16.57;88.43
19890;BME280;10107;51.198;6.824;2022-09-09T04:34:41;-21750.94;;;16.58;88.44
19890;BME280;10107;51.198;6.824;2022-09-09T04:38:44;-21750.81;;;16.58;88.60
19890;BME280;10107;51.198;6.824;2022-09-09T04:42:46;-21751.47;;;16.60;88.80
19890;BME280;10107;51.198;6.824;2022-09-09T04:46:52;-21751.72;;;16.61;87.97
19890;BME280;10107;51.198;6.824;2022-09-09T04:50:56;-21750.81;;;16.58;88.02
19890;BME280;10107;51.198;6.824;2022-09-09T04:54:58;-21749.88;;;16.54;88.14
19890;BME280;10107;51.198;6.824;2022-09-09T04:59:01;-21750.81;;;16.58;88.23
19890;BME280;10107;51.198;6.824;2022-09-09T05:03:16;-21751.97;;;16.62;87.73
19890;BME280;10107;51.198;6.824;2022-09-09T05:07:19;-21752.38;;;16.64;87.91
19890;BME280;10107;51.198;6.824;2022-09-09T05:11:22;-21753.69;;;16.69;87.31
19890;BME280;10107;51.198;6.824;2022-09-09T05:15:28;-21754.22;;;16.71;86.38
19890;BME280;10107;51.198;6.824;2022-09-09T05:19:31;-21755.00;;;16.74;86.85
19890;BME280;10107;51.198;6.824;2022-09-09T05:23:33;-21756.06;;;16.78;86.30
19890;BME280;10107;51.198;6.824;2022-09-09T05:27:36;-21757.50;;;16.84;86.48
19890;BME280;10107;51.198;6.824;2022-09-09T05:31:39;-21758.16;;;16.87;85.77
19890;BME280;10107;51.198;6.824;2022-09-09T05:35:47;-21759.19;;;16.91;86.05
19890;BME280;10107;51.198;6.824;2022-09-09T05:39:49;-21759.19;;;16.91;85.99
19890;BME280;10107;51.198;6.824;2022-09-09T05:43:51;-21760.13;;;16.94;85.30
19890;BME280;10107;51.198;6.824;2022-09-09T05:47:54;-21763.53;;;17.08;84.95
19890;BME280;10107;51.198;6.824;2022-09-09T05:51:58;-21766.41;;;17.19;84.70
19890;BME280;10107;51.198;6.824;2022-09-09T05:56:00;-21769.16;;;17.30;84.35
19890;BME280;10107;51.198;6.824;2022-09-09T06:00:05;-21772.56;;;17.43;84.15
19890;BME280;10107;51.198;6.824;2022-09-09T06:04:14;-21774.53;;;17.51;83.34
19890;BME280;10107;51.198;6.824;2022-09-09T06:08:17;-21776.09;;;17.57;82.90
19890;BME280;10107;51.198;6.824;2022-09-09T06:12:19;-21779.50;;;17.70;82.41
19890;BME280;10107;51.198;6.824;2022-09-09T06:16:23;-21786.56;;;17.98;80.14
19890;BME280;10107;51.198;6.824;2022-09-09T06:20:25;-21788.66;;;18.06;78.55
19890;BME280;10107;51.198;6.824;2022-09-09T06:24:28;-21791.03;;;18.15;77.64
19890;BME280;10107;51.198;6.824;2022-09-09T06:28:32;-21790.09;;;18.12;77.01
19890;BME280;10107;51.198;6.824;2022-09-09T06:32:33;-21786.97;;;17.99;76.92
19890;BME280;10107;51.198;6.824;2022-09-09T06:36:39;-21784.75;;;17.91;77.33
19890;BME280;10107;51.198;6.824;2022-09-09T06:40:43;-21790.50;;;18.13;75.96
19890;BME280;10107;51.198;6.824;2022-09-09T06:44:52;-21791.94;;;18.19;74.38
19890;BME280;10107;51.198;6.824;2022-09-09T06:49:17;-21813.50;;;19.04;71.71
19890;BME280;10107;51.198;6.824;2022-09-09T06:53:19;-21858.63;;;20.81;63.48
19890;BME280;10107;51.198;6.824;2022-09-09T06:57:23;-21839.72;;;20.07;65.43
19890;BME280;10107;51.198;6.824;2022-09-09T07:01:29;-21824.72;;;19.48;67.73
19890;BME280;10107;51.198;6.824;2022-09-09T07:05:35;-21822.00;;;19.37;68.16
19890;BME280;10107;51.198;6.824;2022-09-09T07:09:37;-21823.81;;;19.44;68.00
19890;BME280;10107;51.198;6.824;2022-09-09T07:13:40;-21827.19;;;19.57;67.47
19890;BME280;10107;51.198;6.824;2022-09-09T07:17:43;-21822.38;;;19.38;68.15
19890;BME280;10107;51.198;6.824;2022-09-09T07:21:45;-21814.69;;;19.08;68.62
19890;BME280;10107;51.198;6.824;2022-09-09T07:25:50;-21811.28;;;18.95;69.93
19890;BME280;10107;51.198;6.824;2022-09-09T07:29:55;-21815.47;;;19.11;68.11
19890;BME280;10107;51.198;6.824;2022-09-09T07:33:59;-21812.47;;;18.99;67.89
19890;BME280;10107;51.198;6.824;2022-09-09T07:38:02;-21817.16;;;19.18;67.50
19890;BME280;10107;51.198;6.824;2022-09-09T07:42:05;-21833.72;;;19.83;65.71
19890;BME280;10107;51.198;6.824;2022-09-09T07:46:11;-21846.75;;;20.34;63.65
19890;BME280;10107;51.198;6.824;2022-09-09T07:50:14;-21841.81;;;20.15;63.61
19890;BME280;10107;51.198;6.824;2022-09-09T07:54:18;-21832.94;;;19.80;64.08
19890;BME280;10107;51.198;6.824;2022-09-09T07:58:23;-21833.06;;;19.81;64.23
19890;BME280;10107;51.198;6.824;2022-09-09T08:02:26;-21829.03;;;19.65;64.13
19890;BME280;10107;51.198;6.824;2022-09-09T08:06:32;-21826.94;;;19.56;64.49
19890;BME280;10107;51.198;6.824;2022-09-09T08:10:34;-21823.03;;;19.41;63.46
19890;BME280;10107;51.198;6.824;2022-09-09T08:14:37;-21817.94;;;19.21;61.77
19890;BME280;10107;51.198;6.824;2022-09-09T08:18:40;-21835.16;;;19.89;60.25
19890;BME280;10107;51.198;6.824;2022-09-09T08:22:42;-21879.19;;;21.62;54.05
19890;BME280;10107;51.198;6.824;2022-09-09T08:26:46;-21894.13;;;22.21;52.31
19890;BME280;10107;51.198;6.824;2022-09-09T08:30:49;-21907.34;;;22.73;50.50
19890;BME280;10107;51.198;6.824;2022-09-09T08:34:55;-21906.84;;;22.71;49.28
19890;BME280;10107;51.198;6.824;2022-09-09T08:38:58;-21888.41;;;21.99;50.41
19890;BME280;10107;51.198;6.824;2022-09-09T08:43:02;-21875.00;;;21.46;51.58
19890;BME280;10107;51.198;6.824;2022-09-09T08:47:11;-21868.91;;;21.22;53.07
19890;BME280;10107;51.198;6.824;2022-09-09T08:51:18;-21883.06;;;21.78;51.40
19890;BME280;10107;51.198;6.824;2022-09-09T08:55:23;-21893.59;;;22.19;50.82
19890;BME280;10107;51.198;6.824;2022-09-09T08:59:27;-21900.34;;;22.46;49.55
19890;BME280;10107;51.198;6.824;2022-09-09T09:03:40;-21882.28;;;21.74;51.55
19890;BME280;10107;51.198;6.824;2022-09-09T09:07:58;-21871.88;;;21.33;53.23
19890;BME280;10107;51.198;6.824;2022-09-09T09:12:14;-21871.38;;;21.31;53.41
19890;BME280;10107;51.198;6.824;2022-09-09T09:16:23;-21866.28;;;21.11;53.92
19890;BME280;10107;51.198;6.824;2022-09-09T09:20:36;-21856.66;;;20.73;55.09
19890;BME280;10107;51.198;6.824;2022-09-09T09:24:49;-21847.16;;;20.36;55.31
19890;BME280;10107;51.198;6.824;2022-09-09T09:28:56;-21836.22;;;19.93;54.08
19890;BME280;10107;51.198;6.824;2022-09-09T09:33:05;-21844.28;;;20.25;54.41
19890;BME280;10107;51.198;6.824;2022-09-09T09:37:16;-21862.25;;;20.95;52.50
19890;BME280;10107;51.198;6.824;2022-09-09T09:41:31;-21895.69;;;22.27;50.13
19890;BME280;10107;51.198;6.824;2022-09-09T09:45:40;-21930.44;;;23.65;45.80
19890;BME280;10107;51.198;6.824;2022-09-09T09:49:51;-21987.28;;;25.91;40.31
19890;BME280;10107;51.198;6.824;2022-09-09T09:54:04;-21999.41;;;26.39;39.17
19890;BME280;10107;51.198;6.824;2022-09-09T09:58:15;-21980.19;;;25.62;40.83
19890;BME280;10107;51.198;6.824;2022-09-09T10:02:20;-21978.38;;;25.55;41.12
19890;BME280;10107;51.198;6.824;2022-09-09T10:06:31;-21963.66;;;24.97;42.63
19890;BME280;10107;51.198;6.824;2022-09-09T10:10:48;-21949.84;;;24.42;42.70
19890;BME280;10107;51.198;6.824;2022-09-09T10:15:00;-21944.53;;;24.21;43.29
19890;BME280;10107;51.198;6.824;2022-09-09T10:19:10;-21947.75;;;24.34;43.47
19890;BME280;10107;51.198;6.824;2022-09-09T10:23:27;-21973.63;;;25.36;40.99
19890;BME280;10107;51.198;6.824;2022-09-09T10:27:38;-21982.78;;;25.73;39.00
19890;BME280;10107;51.198;6.824;2022-09-09T10:31:54;-21957.84;;;24.74;41.79
19890;BME280;10107;51.198;6.824;2022-09-09T10:36:08;-21938.47;;;23.97;43.60
19890;BME280;10107;51.198;6.824;2022-09-09T10:40:25;-21933.00;;;23.75;44.72
19890;BME280;10107;51.198;6.824;2022-09-09T10:44:42;-21922.25;;;23.32;46.47
19890;BME280;10107;51.198;6.824;2022-09-09T10:49:03;-21910.72;;;22.87;47.80
19890;BME280;10107;51.198;6.824;2022-09-09T10:53:14;-21901.13;;;22.49;48.68
19890;BME280;10107;51.198;6.824;2022-09-09T10:57:26;-21899.69;;;22.43;49.33
19890;BME280;10107;51.198;6.824;2022-09-09T11:01:34;-21893.34;;;22.18;48.38
19890;BME280;10107;51.198;6.824;2022-09-09T11:05:52;-21893.59;;;22.19;48.93
19890;BME280;10107;51.198;6.824;2022-09-09T11:10:00;-21893.47;;;22.19;48.70
19890;BME280;10107;51.198;6.824;2022-09-09T11:14:13;-21889.03;;;22.01;49.35
19890;BME280;10107;51.198;6.824;2022-09-09T11:18:19;-21882.41;;;21.75;49.92
19890;BME280;10107;51.198;6.824;2022-09-09T11:22:27;-21872.81;;;21.37;52.19
19890;BME280;10107;51.198;6.824;2022-09-09T11:26:35;-21866.28;;;21.11;58.10
19890;BME280;10107;51.198;6.824;2022-09-09T11:30:47;-21872.94;;;21.38;58.28
19890;BME280;10107;51.198;6.824;2022-09-09T11:35:02;-21874.22;;;21.43;59.19
19890;BME280;10107;51.198;6.824;2022-09-09T11:39:36;-21879.56;;;21.64;57.29
19890;BME280;10107;51.198;6.824;2022-09-09T11:43:41;-21896.31;;;22.30;55.57
19890;BME280;10107;51.198;6.824;2022-09-09T11:47:52;-21907.22;;;22.73;53.08
19890;BME280;10107;51.198;6.824;2022-09-09T11:51:54;-21904.75;;;22.63;51.98
19890;BME280;10107;51.198;6.824;2022-09-09T11:56:06;-21890.88;;;22.08;52.82
19890;BME280;10107;51.198;6.824;2022-09-09T12:00:34;-21874.75;;;21.45;53.29
19890;BME280;10107;51.198;6.824;2022-09-09T12:04:39;-21858.50;;;20.81;55.09
19890;BME280;10107;51.198;6.824;2022-09-09T12:08:48;-21854.19;;;20.64;56.89
19890;BME280;10107;51.198;6.824;2022-09-09T12:12:54;-21851.19;;;20.52;60.18
19890;BME280;10107;51.198;6.824;2022-09-09T12:16:56;-21893.34;;;22.18;56.37
19890;BME280;10107;51.198;6.824;2022-09-09T12:21:04;-21959.28;;;24.79;47.45
19890;BME280;10107;51.198;6.824;2022-09-09T12:25:17;-21967.94;;;25.14;46.35
19890;BME280;10107;51.198;6.824;2022-09-09T12:29:27;-21956.94;;;24.70;46.69
19890;BME280;10107;51.198;6.824;2022-09-09T12:33:34;-21938.72;;;23.98;46.72
19890;BME280;10107;51.198;6.824;2022-09-09T12:37:38;-21928.09;;;23.56;48.25
19890;BME280;10107;51.198;6.824;2022-09-09T12:41:50;-21939.22;;;24.00;47.00
19890;BME280;10107;51.198;6.824;2022-09-09T12:45:56;-21947.13;;;24.31;46.13
19890;BME280;10107;51.198;6.824;2022-09-09T12:50:01;-21937.16;;;23.91;46.78
19890;BME280;10107;51.198;6.824;2022-09-09T12:54:03;-21911.88;;;22.91;48.84
19890;BME280;10107;51.198;6.824;2022-09-09T12:58:06;-21889.81;;;22.04;51.43
19890;BME280;10107;51.198;6.824;2022-09-09T13:02:27;-21850.16;;;20.48;69.58
19890;BME280;10107;51.198;6.824;2022-09-09T13:06:31;-21847.03;;;20.35;73.43
19890;BME280;10107;51.198;6.824;2022-09-09T13:10:35;-21881.00;;;21.69;69.35
19890;BME280;10107;51.198;6.824;2022-09-09T13:14:39;-21899.69;;;22.43;66.05
19890;BME280;10107;51.198;6.824;2022-09-09T13:18:48;-21927.56;;;23.53;62.42
19890;BME280;10107;51.198;6.824;2022-09-09T13:22:52;-21911.50;;;22.90;62.45
19890;BME280;10107;51.198;6.824;2022-09-09T13:26:55;-21890.47;;;22.07;64.78
19890;BME280;10107;51.198;6.824;2022-09-09T13:30:58;-21886.84;;;21.92;67.78
19890;BME280;10107;51.198;6.824;2022-09-09T13:35:03;-21891.78;;;22.12;64.74
19890;BME280;10107;51.198;6.824;2022-09-09T13:39:04;-21882.69;;;21.76;65.02
19890;BME280;10107;51.198;6.824;2022-09-09T13:43:16;-21891.66;;;22.11;63.80
19890;BME280;10107;51.198;6.824;2022-09-09T13:47:22;-21906.19;;;22.69;60.60
19890;BME280;10107;51.198;6.824;2022-09-09T13:51:38;-21899.56;;;22.43;58.72
19890;BME280;10107;51.198;6.824;2022-09-09T13:55:40;-21884.50;;;21.83;61.49
19890;BME280;10107;51.198;6.824;2022-09-09T13:59:45;-21884.38;;;21.83;61.47
19890;BME280;10107;51.198;6.824;2022-09-09T14:03:47;-21893.22;;;22.18;59.50
19890;BME280;10107;51.198;6.824;2022-09-09T14:07:51;-21897.38;;;22.34;57.99
19890;BME280;10107;51.198;6.824;2022-09-09T14:11:52;-21909.69;;;22.83;55.90
19890;BME280;10107;51.198;6.824;2022-09-09T14:15:55;-21918.13;;;23.16;54.37
19890;BME280;10107;51.198;6.824;2022-09-09T14:19:57;-21920.31;;;23.25;51.65
19890;BME280;10107;51.198;6.824;2022-09-09T14:24:00;-21924.84;;;23.43;53.44
19890;BME280;10107;51.198;6.824;2022-09-09T14:28:02;-21929.38;;;23.61;50.54
19890;BME280;10107;51.198;6.824;2022-09-09T14:32:04;-21916.19;;;23.08;51.58
19890;BME280;10107;51.198;6.824;2022-09-09T14:36:07;-21897.88;;;22.36;53.01
19890;BME280;10107;51.198;6.824;2022-09-09T14:40:10;-21880.59;;;21.68;54.72
19890;BME280;10107;51.198;6.824;2022-09-09T14:44:12;-21859.78;;;20.86;55.30
19890;BME280;10107;51.198;6.824;2022-09-09T14:48:15;-21838.44;;;20.02;61.70
19890;BME280;10107;51.198;6.824;2022-09-09T14:52:16;-21818.06;;;19.22;66.66
19890;BME280;10107;51.198;6.824;2022-09-09T14:56:21;-21801.09;;;18.55;70.73
19890;BME280;10107;51.198;6.824;2022-09-09T15:00:24;-21788.16;;;18.04;75.57
19890;BME280;10107;51.198;6.824;2022-09-09T15:04:27;-21786.19;;;17.96;79.22
19890;BME280;10107;51.198;6.824;2022-09-09T15:08:28;-21781.84;;;17.79;79.80
19890;BME280;10107;51.198;6.824;2022-09-09T15:12:32;-21778.44;;;17.66;80.92
19890;BME280;10107;51.198;6.824;2022-09-09T15:16:36;-21782.13;;;17.80;80.82
19890;BME280;10107;51.198;6.824;2022-09-09T15:20:37;-21791.69;;;18.18;82.21
19890;BME280;10107;51.198;6.824;2022-09-09T15:24:39;-21799.78;;;18.50;79.48
19890;BME280;10107;51.198;6.824;2022-09-09T15:28:44;-21804.22;;;18.67;80.21
19890;BME280;10107;51.198;6.824;2022-09-09T15:32:47;-21812.47;;;18.99;80.22
19890;BME280;10107;51.198;6.824;2022-09-09T15:36:49;-21814.69;;;19.08;78.55
19890;BME280;10107;51.198;6.824;2022-09-09T15:40:53;-21814.69;;;19.08;80.66
19890;BME280;10107;51.198;6.824;2022-09-09T15:44:57;-21808.66;;;18.85;81.72
19890;BME280;10107;51.198;6.824;2022-09-09T15:49:04;-21798.47;;;18.45;83.97
19890;BME280;10107;51.198;6.824;2022-09-09T15:53:06;-21787.88;;;18.03;85.99
19890;BME280;10107;51.198;6.824;2022-09-09T15:57:11;-21779.91;;;17.72;89.60
19890;BME280;10107;51.198;6.824;2022-09-09T16:01:14;-21772.31;;;17.42;91.73
19890;BME280;10107;51.198;6.824;2022-09-09T16:05:17;-21769.28;;;17.30;93.93
19890;BME280;10107;51.198;6.824;2022-09-09T16:09:19;-21767.19;;;17.22;93.70
19890;BME280;10107;51.198;6.824;2022-09-09T16:13:20;-21764.56;;;17.12;94.39
19890;BME280;10107;51.198;6.824;2022-09-09T16:17:24;-21764.31;;;17.11;95.96
19890;BME280;10107;51.198;6.824;2022-09-09T16:21:27;-21761.69;;;17.00;95.86
19890;BME280;10107;51.198;6.824;2022-09-09T16:25:30;-21757.75;;;16.85;96.73
19890;BME280;10107;51.198;6.824;2022-09-09T16:29:32;-21759.59;;;16.92;97.82
19890;BME280;10107;51.198;6.824;2022-09-09T16:33:35;-21761.94;;;17.01;96.70
19890;BME280;10107;51.198;6.824;2022-09-09T16:37:37;-21760.13;;;16.94;95.16
19890;BME280;10107;51.198;6.824;2022-09-09T16:41:40;-21759.72;;;16.93;96.37
19890;BME280;10107;51.198;6.824;2022-09-09T16:45:43;-21758.81;;;16.89;95.98
19890;BME280;10107;51.198;6.824;2022-09-09T16:49:47;-21755.66;;;16.77;97.07
19890;BME280;10107;51.198;6.824;2022-09-09T16:53:49;-21754.34;;;16.72;98.31
19890;BME280;10107;51.198;6.824;2022-09-09T16:57:51;-21755.13;;;16.75;98.57
19890;BME280;10107;51.198;6.824;2022-09-09T17:01:54;-21756.31;;;16.79;100.00
19890;BME280;10107;51.198;6.824;2022-09-09T17:05:57;-21758.16;;;16.87;100.00
19890;BME280;10107;51.198;6.824;2022-09-09T17:10:02;-21761.28;;;16.99;100.00
19890;BME280;10107;51.198;6.824;2022-09-09T17:14:05;-21762.47;;;17.03;100.00
19890;BME280;10107;51.198;6.824;2022-09-09T17:18:08;-21761.28;;;16.99;100.00
19890;BME280;10107;51.198;6.824;2022-09-09T17:22:11;-21761.16;;;16.98;100.00
19890;BME280;10107;51.198;6.824;2022-09-09T17:26:15;-21761.44;;;16.99;100.00
19890;BME280;10107;51.198;6.824;2022-09-09T17:30:17;-21762.09;;;17.02;100.00
19890;BME280;10107;51.198;6.824;2022-09-09T17:34:19;-21759.97;;;16.94;100.00
19890;BME280;10107;51.198;6.824;2022-09-09T17:38:22;-21759.06;;;16.90;100.00
19890;BME280;10107;51.198;6.824;2022-09-09T17:42:24;-21757.75;;;16.85;100.00
19890;BME280;10107;51.198;6.824;2022-09-09T17:46:28;-21755.66;;;16.77;100.00
19890;BME280;10107;51.198;6.824;2022-09-09T17:50:30;-21754.34;;;16.72;100.00
19890;BME280;10107;51.198;6.824;2022-09-09T17:54:35;-21752.50;;;16.65;100.00
19890;BME280;10107;51.198;6.824;2022-09-09T17:58:37;-21750.28;;;16.56;100.00
19890;BME280;10107;51.198;6.824;2022-09-09T18:02:40;-21749.34;;;16.52;100.00
19890;BME280;10107;51.198;6.824;2022-09-09T18:06:43;-21749.50;;;16.53;100.00
19890;BME280;10107;51.198;6.824;2022-09-09T18:10:52;-21749.34;;;16.52;100.00
19890;BME280;10107;51.198;6.824;2022-09-09T18:14:55;-21749.63;;;16.53;100.00
19890;BME280;10107;51.198;6.824;2022-09-09T18:18:57;-21749.75;;;16.54;100.00
19890;BME280;10107;51.198;6.824;2022-09-09T18:22:59;-21749.63;;;16.53;100.00
19890;BME280;10107;51.198;6.824;2022-09-09T18:27:03;-21750.16;;;16.55;100.00
19890;BME280;10107;51.198;6.824;2022-09-09T18:31:06;-21750.41;;;16.56;100.00
19890;BME280;10107;51.198;6.824;2022-09-09T18:35:07;-21751.06;;;16.59;100.00
19890;BME280;10107;51.198;6.824;2022-09-09T18:39:10;-21751.47;;;16.60;100.00
19890;BME280;10107;51.198;6.824;2022-09-09T18:43:14;-21752.63;;;16.65;100.00
19890;BME280;10107;51.198;6.824;2022-09-09T18:47:17;-21752.63;;;16.65;100.00
19890;BME280;10107;51.198;6.824;2022-09-09T18:51:20;-21751.19;;;16.59;99.77
19890;BME280;10107;51.198;6.824;2022-09-09T18:55:22;-21748.84;;;16.50;100.00
19890;BME280;10107;51.198;6.824;2022-09-09T18:59:26;-21747.91;;;16.47;100.00
19890;BME280;10107;51.198;6.824;2022-09-09T19:03:29;-21746.88;;;16.42;99.79
19890;BME280;10107;51.198;6.824;2022-09-09T19:07:31;-21745.28;;;16.36;98.70
19890;BME280;10107;51.198;6.824;2022-09-09T19:11:33;-21743.19;;;16.28;99.22
19890;BME280;10107;51.198;6.824;2022-09-09T19:15:36;-21740.97;;;16.19;99.54
19890;BME280;10107;51.198;6.824;2022-09-09T19:19:39;-21739.25;;;16.13;100.00
19890;BME280;10107;51.198;6.824;2022-09-09T19:23:41;-21737.69;;;16.07;100.00
19890;BME280;10107;51.198;6.824;2022-09-09T19:27:43;-21737.69;;;16.07;100.00
19890;BME280;10107;51.198;6.824;2022-09-09T19:31:48;-21739.38;;;16.13;100.00
19890;BME280;10107;51.198;6.824;2022-09-09T19:35:55;-21738.59;;;16.10;100.00
19890;BME280;10107;51.198;6.824;2022-09-09T19:39:57;-21737.56;;;16.06;100.00
19890;BME280;10107;51.198;6.824;2022-09-09T19:44:01;-21736.91;;;16.03;100.00
19890;BME280;10107;51.198;6.824;2022-09-09T19:48:06;-21735.84;;;15.99;100.00
19890;BME280;10107;51.198;6.824;2022-09-09T19:52:08;-21736.50;;;16.02;100.00
19890;BME280;10107;51.198;6.824;2022-09-09T19:56:11;-21737.28;;;16.05;100.00
19890;BME280;10107;51.198;6.824;2022-09-09T20:00:13;-21737.41;;;16.06;100.00
19890;BME280;10107;51.198;6.824;2022-09-09T20:04:16;-21737.28;;;16.05;100.00
19890;BME280;10107;51.198;6.824;2022-09-09T20:08:18;-21736.50;;;16.02;100.00
19890;BME280;10107;51.198;6.824;2022-09-09T20:12:19;-21737.81;;;16.07;100.00
19890;BME280;10107;51.198;6.824;2022-09-09T20:16:23;-21738.06;;;16.08;99.73
19890;BME280;10107;51.198;6.824;2022-09-09T20:20:27;-21738.72;;;16.11;99.81
19890;BME280;10107;51.198;6.824;2022-09-09T20:24:29;-21740.56;;;16.18;99.41
19890;BME280;10107;51.198;6.824;2022-09-09T20:28:31;-21742.81;;;16.27;99.42
19890;BME280;10107;51.198;6.824;2022-09-09T20:32:34;-21743.84;;;16.31;98.54
19890;BME280;10107;51.198;6.824;2022-09-09T20:36:37;-21744.38;;;16.33;98.06
19890;BME280;10107;51.198;6.824;2022-09-09T20:40:40;-21744.63;;;16.34;98.13
19890;BME280;10107;51.198;6.824;2022-09-09T20:44:42;-21745.03;;;16.35;97.80
19890;BME280;10107;51.198;6.824;2022-09-09T20:48:45;-21744.91;;;16.35;97.87
19890;BME280;10107;51.198;6.824;2022-09-09T20:52:48;-21746.34;;;16.40;97.79
19890;BME280;10107;51.198;6.824;2022-09-09T20:56:50;-21746.47;;;16.41;97.67
19890;BME280;10107;51.198;6.824;2022-09-09T21:00:53;-21746.59;;;16.41;97.20
19890;BME280;10107;51.198;6.824;2022-09-09T21:04:59;-21746.09;;;16.39;96.89
19890;BME280;10107;51.198;6.824;2022-09-09T21:09:03;-21746.59;;;16.41;96.46
19890;BME280;10107;51.198;6.824;2022-09-09T21:13:05;-21746.75;;;16.42;96.29
19890;BME280;10107;51.198;6.824;2022-09-09T21:17:06;-21747.38;;;16.44;96.29
19890;BME280;10107;51.198;6.824;2022-09-09T21:21:08;-21746.59;;;16.41;95.82
19890;BME280;10107;51.198;6.824;2022-09-09T21:25:14;-21744.63;;;16.34;96.19